Time;durP1;ratioP1;P1;durP2;ratioP2;P2;SDS_P1;SDS_P2;PMS_P1;PMS_P2;Temp;Humidity;BMP_temperature;BMP_pressure;BME280_temperature;BME280_humidity;BME280_pressure;Samples;Min_cycle;Max_cycle;Signal;HPM_P1;HPM_P2
2022/07/18 00:01:35;;;;;;;3.77;3.63;;;17.40;1.00;;;;;;6281209;28;20295;-55
2022/07/18 00:04:38;;;;;;;4.10;3.90;;;17.40;1.00;;;;;;6293329;28;20237;-55
2022/07/18 00:07:43;;;;;;;4.63;3.80;;;17.50;1.00;;;;;;6285822;28;20234;-54
2022/07/18 00:10:45;;;;;;;4.80;4.57;;;17.50;1.00;;;;;;6278206;28;20278;-54
2022/07/18 00:13:50;;;;;;;4.40;4.10;;;17.50;1.00;;;;;;6264014;28;20237;-53
2022/07/18 00:16:53;;;;;;;4.30;4.10;;;17.50;1.00;;;;;;6228778;28;20936;-47
2022/07/18 00:19:56;;;;;;;4.93;4.53;;;17.50;1.00;;;;;;6278597;28;20233;-53
2022/07/18 00:23:00;;;;;;;4.47;4.07;;;17.60;1.00;;;;;;6260711;28;20255;-53
2022/07/18 00:26:04;;;;;;;4.00;3.80;;;17.60;1.00;;;;;;6257523;28;20542;-53
2022/07/18 00:29:06;;;;;;;4.10;3.80;;;17.60;1.00;;;;;;6256624;28;20265;-54
2022/07/18 00:32:10;;;;;;;4.20;3.90;;;17.60;1.00;;;;;;6257419;28;20345;-53
2022/07/18 00:35:12;;;;;;;4.00;3.60;;;17.60;1.00;;;;;;6298606;28;20289;-53
2022/07/18 00:38:17;;;;;;;4.27;3.97;;;17.60;1.00;;;;;;6275791;28;20232;-53
2022/07/18 00:41:20;;;;;;;3.40;3.20;;;17.60;1.00;;;;;;6281284;28;20232;-54
2022/07/18 00:44:24;;;;;;;3.40;3.20;;;17.60;1.00;;;;;;6282129;28;20317;-53
2022/07/18 00:47:27;;;;;;;3.30;3.10;;;17.70;1.00;;;;;;6268450;28;20347;-53
2022/07/18 00:50:30;;;;;;;2.80;2.70;;;17.70;1.00;;;;;;6281775;28;20241;-55
2022/07/18 00:53:35;;;;;;;2.80;2.70;;;17.70;1.00;;;;;;6277145;28;20675;-54
2022/07/18 00:56:39;;;;;;;2.73;2.63;;;17.70;1.00;;;;;;6254213;28;20317;-54
2022/07/18 01:03:02;;;;;;;2.80;2.70;;;17.80;1.00;;;;;;6267423;28;20260;-54
2022/07/18 01:06:06;;;;;;;2.60;2.50;;;17.80;1.00;;;;;;6291775;28;20324;-53
2022/07/18 01:09:10;;;;;;;2.67;2.57;;;17.80;1.00;;;;;;6273515;28;20285;-53
2022/07/18 01:12:14;;;;;;;2.90;2.70;;;17.80;1.00;;;;;;6286921;28;20303;-54
2022/07/18 01:15:17;;;;;;;3.00;2.90;;;17.70;1.00;;;;;;6263366;28;20248;-54
2022/07/18 01:18:20;;;;;;;3.07;2.97;;;17.70;1.00;;;;;;6268394;28;20398;-55
2022/07/18 01:21:25;;;;;;;3.77;2.60;;;17.70;1.00;;;;;;6269458;28;20320;-54
2022/07/18 01:24:28;;;;;;;3.13;2.97;;;17.70;1.00;;;;;;6257736;28;20579;-53
2022/07/18 01:27:31;;;;;;;2.97;2.77;;;17.70;1.00;;;;;;6260940;28;20775;-54
2022/07/18 01:30:34;;;;;;;2.97;2.77;;;17.70;1.00;;;;;;6261785;28;20273;-54
2022/07/18 01:33:37;;;;;;;2.80;2.70;;;17.60;1.00;;;;;;6273152;28;20318;-54
2022/07/18 01:36:41;;;;;;;3.00;2.90;;;17.60;1.00;;;;;;6303157;28;20243;-54
2022/07/18 01:39:45;;;;;;;2.87;2.77;;;17.50;1.00;;;;;;6278948;28;20252;-54
2022/07/18 01:42:48;;;;;;;2.93;2.83;;;17.50;1.00;;;;;;6286297;28;20257;-54
2022/07/18 01:45:52;;;;;;;3.13;3.03;;;17.40;1.00;;;;;;6285268;28;20229;-52
2022/07/18 01:48:55;;;;;;;2.80;2.70;;;17.40;1.00;;;;;;6259485;28;20308;-54
2022/07/18 01:52:00;;;;;;;2.83;2.60;;;17.30;1.00;;;;;;6259800;28;20242;-54
2022/07/18 01:55:04;;;;;;;3.50;3.00;;;17.30;1.00;;;;;;6257646;28;20360;-53
2022/07/18 01:58:07;;;;;;;2.90;2.70;;;17.30;1.00;;;;;;6259793;28;20313;-53
2022/07/18 02:01:10;;;;;;;3.27;3.00;;;17.30;1.00;;;;;;6276020;28;20245;-54
2022/07/18 02:04:13;;;;;;;3.27;3.07;;;17.30;1.00;;;;;;6285096;28;20233;-54
2022/07/18 02:07:17;;;;;;;2.90;2.70;;;17.20;1.00;;;;;;6296394;28;20797;-53
2022/07/18 02:10:21;;;;;;;2.63;2.63;;;17.20;1.00;;;;;;6264144;28;20536;-53
2022/07/18 02:13:25;;;;;;;2.80;2.70;;;17.20;1.00;;;;;;6260634;28;20242;-54
2022/07/18 02:16:28;;;;;;;2.87;2.67;;;17.10;1.00;;;;;;6260720;28;20476;-53
2022/07/18 02:19:32;;;;;;;3.13;2.93;;;17.00;1.00;;;;;;6265951;28;20321;-53
2022/07/18 02:22:36;;;;;;;2.90;2.80;;;17.00;1.00;;;;;;6258094;28;20349;-52
2022/07/18 02:25:39;;;;;;;2.93;2.83;;;16.90;1.00;;;;;;6258997;28;20348;-53
2022/07/18 02:28:42;;;;;;;3.17;2.87;;;16.90;1.00;;;;;;6258467;28;20229;-54
2022/07/18 02:31:45;;;;;;;2.90;2.80;;;16.80;1.00;;;;;;6259933;28;20269;-53
2022/07/18 02:34:48;;;;;;;2.50;2.50;;;16.70;1.00;;;;;;6294250;28;20861;-53
2022/07/18 02:37:52;;;;;;;2.90;2.73;;;16.60;1.00;;;;;;6279372;28;20375;-53
2022/07/18 02:40:55;;;;;;;2.90;2.80;;;16.60;1.00;;;;;;6281565;28;20362;-54
2022/07/18 02:43:58;;;;;;;3.13;2.93;;;16.50;1.00;;;;;;6284386;28;20238;-53
2022/07/18 02:47:01;;;;;;;3.73;3.00;;;16.40;1.00;;;;;;6266077;28;20291;-54
2022/07/18 02:50:05;;;;;;;3.60;3.37;;;16.40;1.00;;;;;;6275449;28;20879;-54
2022/07/18 02:53:09;;;;;;;2.90;2.80;;;16.30;1.00;;;;;;6280520;28;20236;-53
2022/07/18 02:56:12;;;;;;;3.07;2.97;;;16.30;1.00;;;;;;6283501;28;20229;-54
2022/07/18 02:59:15;;;;;;;2.90;2.80;;;16.30;1.00;;;;;;6253006;28;20241;-50
2022/07/18 03:02:18;;;;;;;3.10;2.90;;;16.20;1.00;;;;;;6259304;28;20245;-53
2022/07/18 03:05:21;;;;;;;3.10;3.00;;;16.10;1.00;;;;;;6295582;28;20306;-53
2022/07/18 03:08:25;;;;;;;2.93;2.83;;;16.10;1.00;;;;;;6277139;28;20245;-54
2022/07/18 03:11:28;;;;;;;3.50;3.07;;;16.00;1.00;;;;;;6279086;28;20792;-53
2022/07/18 03:14:31;;;;;;;4.67;3.17;;;16.00;1.00;;;;;;6258717;28;20244;-53
2022/07/18 03:17:34;;;;;;;3.10;3.00;;;15.90;1.00;;;;;;6259491;28;20718;-53
2022/07/18 03:20:37;;;;;;;2.97;2.87;;;15.90;1.00;;;;;;6274750;28;20581;-53
2022/07/18 03:23:41;;;;;;;4.20;3.40;;;15.90;1.00;;;;;;6279439;28;20433;-54
2022/07/18 03:26:45;;;;;;;3.53;3.43;;;15.80;1.00;;;;;;6282356;28;20534;-54
2022/07/18 03:29:48;;;;;;;3.80;3.60;;;15.80;1.00;;;;;;6273106;28;20857;-54
2022/07/18 03:32:51;;;;;;;3.40;3.20;;;15.80;1.00;;;;;;6258680;28;20252;-53
2022/07/18 03:35:54;;;;;;;3.40;3.20;;;15.80;1.00;;;;;;6295079;28;20316;-57
2022/07/18 03:38:58;;;;;;;3.30;3.20;;;15.70;1.00;;;;;;6281779;28;20242;-54
2022/07/18 03:42:01;;;;;;;3.23;3.10;;;15.70;1.00;;;;;;6292515;28;20237;-53
2022/07/18 03:45:05;;;;;;;3.53;3.10;;;15.80;1.00;;;;;;6282533;28;20374;-53
2022/07/18 03:48:08;;;;;;;3.23;3.13;;;15.80;1.00;;;;;;6276221;28;20233;-54
2022/07/18 03:51:11;;;;;;;3.17;2.97;;;15.80;1.00;;;;;;6286611;28;20853;-54
2022/07/18 03:54:16;;;;;;;3.47;3.37;;;15.70;1.00;;;;;;6278515;28;20235;-54
2022/07/18 03:57:18;;;;;;;3.93;3.60;;;15.80;1.00;;;;;;6281248;28;20379;-54
2022/07/18 04:00:21;;;;;;;3.47;3.37;;;15.80;1.00;;;;;;6272081;28;20747;-54
2022/07/18 04:03:24;;;;;;;3.50;3.30;;;15.80;1.00;;;;;;6278804;28;20337;-54
2022/07/18 04:06:27;;;;;;;3.20;3.00;;;15.80;1.00;;;;;;6280197;28;20718;-53
2022/07/18 04:09:32;;;;;;;3.70;3.60;;;15.80;1.00;;;;;;6276669;28;20240;-54
2022/07/18 04:12:35;;;;;;;3.50;3.33;;;15.80;1.00;;;;;;6281358;28;20899;-55
2022/07/18 04:15:38;;;;;;;3.70;3.40;;;15.80;1.00;;;;;;6292306;28;20308;-53
2022/07/18 04:18:41;;;;;;;3.17;3.00;;;15.90;1.00;;;;;;6288922;28;20736;-53
2022/07/18 04:21:44;;;;;;;5.23;3.73;;;15.90;1.00;;;;;;6280762;28;20261;-53
2022/07/18 04:24:48;;;;;;;4.27;3.97;;;16.00;1.00;;;;;;6283194;28;20233;-59
2022/07/18 04:27:56;;;;;;;3.30;3.20;;;16.00;1.00;;;;;;6279162;28;20295;-52
2022/07/18 04:30:59;;;;;;;3.13;3.03;;;16.10;1.00;;;;;;6291353;28;20316;-53
2022/07/18 04:34:02;;;;;;;4.07;3.87;;;16.10;1.00;;;;;;6292576;28;20291;-54
2022/07/18 04:37:05;;;;;;;3.50;3.20;;;16.20;1.00;;;;;;6286374;28;20687;-54
2022/07/18 04:40:12;;;;;;;3.57;3.27;;;16.20;1.00;;;;;;6288964;28;20240;-55
2022/07/18 04:43:15;;;;;;;3.90;3.23;;;16.20;1.00;;;;;;6285440;28;20326;-53
2022/07/18 04:46:18;;;;;;;3.47;3.37;;;16.30;1.00;;;;;;6290863;28;20239;-55
2022/07/18 04:49:21;;;;;;;4.00;3.70;;;16.30;1.00;;;;;;6296107;28;20320;-54
2022/07/18 04:52:24;;;;;;;3.23;3.10;;;16.40;1.00;;;;;;6282754;28;20624;-53
2022/07/18 04:55:29;;;;;;;3.83;3.30;;;16.50;1.00;;;;;;6296534;28;20249;-55
2022/07/18 04:58:32;;;;;;;4.13;3.70;;;16.70;1.00;;;;;;6283415;28;20263;-54
2022/07/18 05:01:35;;;;;;;3.67;3.47;;;16.80;1.00;;;;;;6289344;28;20352;-53
2022/07/18 05:04:39;;;;;;;3.27;3.07;;;17.00;1.00;;;;;;6286599;28;20248;-54
2022/07/18 05:07:43;;;;;;;3.83;3.17;;;17.20;1.00;;;;;;6292651;28;20244;-53
2022/07/18 05:10:47;;;;;;;7.60;4.03;;;17.40;1.00;;;;;;6288193;28;20694;-53
2022/07/18 05:13:50;;;;;;;4.50;3.60;;;17.70;1.00;;;;;;6285559;28;20233;-53
2022/07/18 05:16:53;;;;;;;7.93;3.60;;;17.90;1.00;;;;;;6282015;28;20347;-53
2022/07/18 05:19:56;;;;;;;5.37;3.70;;;18.30;1.00;;;;;;6291236;28;20298;-54
2022/07/18 05:22:59;;;;;;;6.13;3.87;;;18.60;1.00;;;;;;6283741;28;20344;-54
2022/07/18 05:26:04;;;;;;;4.03;3.67;;;18.90;1.00;;;;;;6291781;28;20233;-52
2022/07/18 05:29:07;;;;;;;3.30;3.20;;;19.20;1.00;;;;;;6288973;28;20243;-54
2022/07/18 05:32:11;;;;;;;4.27;3.60;;;19.50;1.00;;;;;;6286820;28;20249;-52
2022/07/18 05:35:14;;;;;;;3.60;3.50;;;19.70;1.00;;;;;;6288921;28;20311;-54
2022/07/18 05:38:17;;;;;;;7.37;3.70;;;20.10;1.00;;;;;;6283345;28;20625;-53
2022/07/18 05:41:21;;;;;;;3.57;3.23;;;20.40;1.00;;;;;;6290017;28;20320;-54
2022/07/18 05:44:24;;;;;;;4.17;3.57;;;20.70;1.00;;;;;;6286431;28;20241;-54
2022/07/18 05:47:27;;;;;;;4.93;3.40;;;21.00;1.00;;;;;;6287761;28;20575;-53
2022/07/18 05:50:30;;;;;;;6.60;3.50;;;21.40;1.00;;;;;;6283487;28;20244;-52
2022/07/18 05:53:33;;;;;;;4.50;3.97;;;21.60;1.00;;;;;;6283076;28;20698;-54
2022/07/18 05:56:37;;;;;;;4.37;3.23;;;21.80;1.00;;;;;;6287604;28;20441;-53
2022/07/18 05:59:40;;;;;;;3.70;3.50;;;22.10;1.00;;;;;;6289869;28;20252;-52
2022/07/18 06:02:43;;;;;;;4.23;3.87;;;22.30;1.00;;;;;;6277219;28;20306;-53
2022/07/18 06:05:47;;;;;;;7.37;5.73;;;22.60;1.00;;;;;;6286427;28;20240;-54
2022/07/18 06:08:50;;;;;;;3.20;3.10;;;22.50;1.00;;;;;;6281852;28;20237;-53
2022/07/18 06:11:54;;;;;;;8.40;3.53;;;22.60;1.00;;;;;;6283062;28;20403;-53
2022/07/18 06:14:57;;;;;;;5.30;3.70;;;22.90;1.00;;;;;;6280260;28;20245;-54
2022/07/18 06:18:00;;;;;;;3.67;3.37;;;23.30;1.00;;;;;;6295152;28;20380;-54
2022/07/18 06:21:04;;;;;;;3.80;3.50;;;23.30;1.00;;;;;;6288349;28;20244;-54
2022/07/18 06:24:07;;;;;;;5.43;3.17;;;23.60;1.00;;;;;;6256929;28;20224;-51
2022/07/18 06:27:11;;;;;;;5.33;3.70;;;24.00;1.00;;;;;;6283891;28;20380;-51
2022/07/18 06:30:14;;;;;;;5.93;3.43;;;24.20;1.00;;;;;;6290372;28;20327;-53
2022/07/18 06:33:17;;;;;;;4.07;3.47;;;24.50;1.00;;;;;;6282896;28;20240;-53
2022/07/18 06:36:23;;;;;;;8.50;3.60;;;24.40;1.00;;;;;;6282659;28;20618;-53
2022/07/18 06:39:26;;;;;;;4.67;3.50;;;24.20;1.00;;;;;;6279465;28;20761;-54
2022/07/18 06:42:30;;;;;;;2.97;2.83;;;24.20;1.00;;;;;;6288024;28;20233;-53
2022/07/18 06:45:33;;;;;;;6.10;3.10;;;24.00;1.00;;;;;;6282889;28;20237;-54
2022/07/18 06:48:36;;;;;;;2.93;2.73;;;24.00;1.00;;;;;;6283283;28;20707;-54
2022/07/18 06:51:39;;;;;;;5.37;3.00;;;24.30;1.00;;;;;;6284538;28;20283;-54
2022/07/18 06:54:42;;;;;;;6.67;2.80;;;24.60;1.00;;;;;;6277919;28;20229;-53
2022/07/18 06:57:47;;;;;;;2.97;2.77;;;24.50;1.00;;;;;;6285918;28;20310;-53
2022/07/18 07:00:50;;;;;;;6.37;2.70;;;24.40;1.00;;;;;;6288755;28;20394;-53
2022/07/18 07:03:53;;;;;;;4.57;2.70;;;24.60;1.00;;;;;;6292443;28;20272;-52
2022/07/18 07:06:56;;;;;;;4.07;3.10;;;24.80;1.00;;;;;;6288478;28;20237;-53
2022/07/18 07:09:58;;;;;;;2.90;2.70;;;25.20;1.00;;;;;;6279933;28;20332;-52
2022/07/18 07:13:03;;;;;;;4.33;2.53;;;25.30;1.00;;;;;;6285303;28;20234;-54
2022/07/18 07:16:06;;;;;;;3.23;2.60;;;24.90;1.00;;;;;;6291078;28;20252;-53
2022/07/18 07:19:09;;;;;;;4.90;2.80;;;24.90;1.00;;;;;;6275923;28;20320;-52
2022/07/18 07:22:11;;;;;;;6.07;2.73;;;24.80;1.00;;;;;;6273266;28;20658;-53
2022/07/18 07:25:16;;;;;;;2.00;2.00;;;24.50;1.00;;;;;;6280288;28;20320;-52
2022/07/18 07:28:20;;;;;;;4.07;2.40;;;24.50;1.00;;;;;;6290499;28;20241;-52
2022/07/18 07:31:23;;;;;;;5.40;2.70;;;24.40;1.00;;;;;;6284563;28;20322;-51
2022/07/18 07:34:26;;;;;;;4.07;2.40;;;24.60;1.00;;;;;;6283915;28;20294;-52
2022/07/18 07:37:29;;;;;;;6.43;2.67;;;24.50;1.00;;;;;;6280925;28;20286;-52
2022/07/18 07:40:32;;;;;;;3.37;2.70;;;24.50;1.00;;;;;;6282522;28;20681;-51
2022/07/18 07:43:38;;;;;;;2.37;2.27;;;24.40;1.00;;;;;;6286623;28;20283;-50
2022/07/18 07:46:41;;;;;;;2.00;1.90;;;24.20;1.00;;;;;;6281436;28;20270;-57
2022/07/18 07:49:44;;;;;;;2.80;2.63;;;24.40;1.00;;;;;;6278255;28;20328;-52
2022/07/18 07:52:47;;;;;;;2.60;2.27;;;24.40;1.00;;;;;;6283002;28;20244;-52
2022/07/18 07:55:50;;;;;;;2.43;2.23;;;24.50;1.00;;;;;;6279932;28;20328;-54
2022/07/18 07:58:54;;;;;;;2.80;2.57;;;24.60;1.00;;;;;;6282921;28;20260;-52
2022/07/18 08:01:57;;;;;;;2.83;2.60;;;24.60;1.00;;;;;;6278279;28;20318;-54
2022/07/18 08:05:00;;;;;;;2.37;2.20;;;24.60;1.00;;;;;;6279862;28;20772;-55
2022/07/18 08:08:04;;;;;;;3.13;2.53;;;24.30;1.00;;;;;;6283754;28;20794;-53
2022/07/18 08:11:07;;;;;;;2.60;2.50;;;24.30;1.00;;;;;;6284001;28;20301;-53
2022/07/18 08:14:11;;;;;;;3.17;2.80;;;24.30;1.00;;;;;;6279051;28;20241;-54
2022/07/18 08:17:14;;;;;;;2.63;2.43;;;24.20;1.00;;;;;;6281943;28;20241;-51
2022/07/18 08:20:17;;;;;;;2.50;2.40;;;24.30;1.00;;;;;;6275505;28;20985;-52
2022/07/18 08:23:20;;;;;;;2.73;2.60;;;24.50;1.00;;;;;;6276269;28;20298;-52
2022/07/18 08:26:23;;;;;;;3.47;2.70;;;24.60;1.00;;;;;;6282172;28;20717;-52
2022/07/18 08:29:27;;;;;;;3.47;3.27;;;24.80;1.00;;;;;;6279412;28;20237;-52
2022/07/18 08:32:50;;;;;;;3.53;3.33;;;25.10;1.00;;;;;;6285477;28;20244;-52
2022/07/18 08:35:53;;;;;;;4.43;3.93;;;25.10;1.00;;;;;;6280315;28;20320;-54
2022/07/18 08:38:56;;;;;;;4.10;3.90;;;25.20;1.00;;;;;;6286620;28;20240;-53
2022/07/18 08:42:01;;;;;;;3.23;3.03;;;25.20;1.00;;;;;;6280993;28;20371;-53
2022/07/18 08:45:08;;;;;;;3.77;3.60;;;25.10;1.00;;;;;;6283860;28;20777;-53
2022/07/18 08:48:14;;;;;;;3.47;3.27;;;25.10;1.00;;;;;;6289996;28;20321;-53
2022/07/18 08:51:17;;;;;;;3.57;3.37;;;25.20;1.00;;;;;;6278436;28;20237;-53
2022/07/18 08:54:20;;;;;;;3.90;3.60;;;25.30;1.00;;;;;;6290125;28;20374;-52
2022/07/18 08:57:25;;;;;;;4.17;3.43;;;25.20;1.00;;;;;;6275099;28;20237;-51
2022/07/18 09:00:29;;;;;;;3.00;2.80;;;25.00;1.00;;;;;;6287264;28;20290;-52
2022/07/18 09:03:39;;;;;;;3.63;3.33;;;25.20;1.00;;;;;;6276660;28;20229;-52
2022/07/18 09:06:44;;;;;;;3.73;3.53;;;25.00;1.00;;;;;;6282522;28;20267;-52
2022/07/18 09:09:54;;;;;;;4.10;3.70;;;25.10;1.00;;;;;;6289271;28;20271;-53
2022/07/18 09:12:58;;;;;;;4.93;3.90;;;25.20;1.00;;;;;;6282931;28;20320;-51
2022/07/18 09:16:22;;;;;;;5.00;4.60;;;25.20;1.00;;;;;;6267160;28;20242;-52
2022/07/18 09:19:25;;;;;;;4.60;4.20;;;25.40;1.00;;;;;;6287087;28;20756;-52
2022/07/18 09:22:30;;;;;;;4.20;4.00;;;25.50;1.00;;;;;;6284690;28;20749;-51
2022/07/18 09:25:33;;;;;;;4.17;3.63;;;25.60;1.00;;;;;;6286451;28;20267;-52
2022/07/18 09:28:48;;;;;;;3.50;3.17;;;25.50;1.00;;;;;;6286587;28;20666;-54
2022/07/18 09:32:22;;;;;;;5.20;4.13;;;25.80;1.00;;;;;;6287306;28;20617;-52
2022/07/18 09:35:27;;;;;;;3.50;3.30;;;26.10;1.00;;;;;;6283483;28;20237;-51
2022/07/18 09:38:30;;;;;;;4.47;3.43;;;26.20;1.00;;;;;;6282513;28;20540;-53
2022/07/18 09:41:33;;;;;;;3.97;3.53;;;26.20;1.00;;;;;;6283923;28;20229;-53
2022/07/18 09:44:37;;;;;;;3.53;3.33;;;26.20;1.00;;;;;;6289134;28;20232;-53
2022/07/18 09:47:52;;;;;;;6.00;3.93;;;26.30;1.00;;;;;;6286959;28;20225;-53
2022/07/18 09:50:58;;;;;;;7.70;3.63;;;26.20;1.00;;;;;;6291744;28;20396;-52
2022/07/18 09:54:02;;;;;;;6.00;4.20;;;26.20;1.00;;;;;;6280719;28;20244;-53
2022/07/18 09:57:05;;;;;;;4.80;4.13;;;26.30;1.00;;;;;;6277625;28;20625;-49
2022/07/18 10:00:09;;;;;;;4.47;4.07;;;26.60;1.00;;;;;;6284300;28;20249;-50
2022/07/18 10:03:14;;;;;;;3.97;3.63;;;26.60;1.00;;;;;;6285808;28;20623;-53
2022/07/18 10:06:18;;;;;;;4.30;4.00;;;26.80;1.00;;;;;;6292383;28;20260;-51
2022/07/18 10:09:21;;;;;;;4.17;3.87;;;26.80;1.00;;;;;;6287518;28;20359;-52
2022/07/18 10:12:24;;;;;;;4.67;4.13;;;27.00;1.00;;;;;;6285455;28;20265;-52
2022/07/18 10:15:30;;;;;;;4.27;4.07;;;27.20;1.00;;;;;;6289619;28;20247;-52
2022/07/18 10:18:36;;;;;;;7.60;4.73;;;27.20;1.00;;;;;;6284473;28;20241;-52
2022/07/18 10:21:41;;;;;;;4.90;4.10;;;27.40;1.00;;;;;;6279931;28;20722;-53
2022/07/18 10:24:44;;;;;;;4.07;3.77;;;27.30;1.00;;;;;;6277751;28;20297;-53
2022/07/18 10:27:52;;;;;;;4.67;4.27;;;27.30;1.00;;;;;;6270569;28;20332;-55
2022/07/18 10:30:56;;;;;;;4.30;4.10;;;27.50;1.00;;;;;;6280356;28;20261;-55
2022/07/18 10:34:12;;;;;;;8.53;4.40;;;27.70;1.00;;;;;;6275013;28;20226;-52
2022/07/18 10:37:25;;;;;;;4.33;4.03;;;27.80;1.00;;;;;;6266938;28;20225;-52
2022/07/18 10:40:29;;;;;;;4.33;4.13;;;28.00;1.00;;;;;;6280020;28;20387;-52
2022/07/18 10:43:43;;;;;;;4.50;4.20;;;28.10;1.00;;;;;;6284864;28;20280;-52
2022/07/18 10:47:08;;;;;;;4.10;3.73;;;28.10;1.00;;;;;;6281449;28;20821;-51
2022/07/18 10:50:12;;;;;;;4.47;3.93;;;28.30;1.00;;;;;;6279107;28;20253;-54
2022/07/18 10:53:15;;;;;;;5.13;4.20;;;28.10;1.00;;;;;;6279921;28;20243;-52
2022/07/18 10:56:18;;;;;;;5.87;4.23;;;27.80;1.00;;;;;;6289429;28;20320;-52
2022/07/18 10:59:24;;;;;;;4.27;3.67;;;28.00;1.00;;;;;;6273190;28;20387;-51
2022/07/18 11:02:35;;;;;;;3.93;3.73;;;28.00;1.00;;;;;;6279020;28;20256;-51
2022/07/18 11:05:44;;;;;;;4.17;3.87;;;27.90;1.00;;;;;;6281312;28;20241;-54
2022/07/18 11:08:47;;;;;;;4.40;4.07;;;27.90;1.00;;;;;;6275767;28;20241;-51
2022/07/18 11:12:28;;;;;;;5.37;4.47;;;28.10;1.00;;;;;;6283193;28;20478;-52
2022/07/18 11:15:55;;;;;;;5.00;4.53;;;27.90;1.00;;;;;;6251675;28;20307;-51
2022/07/18 11:19:21;;;;;;;5.07;4.57;;;27.80;1.00;;;;;;6283438;28;20733;-52
2022/07/18 11:22:26;;;;;;;5.00;4.60;;;27.90;1.00;;;;;;6275488;28;20469;-52
2022/07/18 11:25:30;;;;;;;4.93;4.37;;;27.80;1.00;;;;;;6266339;28;20235;-51
2022/07/18 11:28:58;;;;;;;5.10;4.63;;;27.80;1.00;;;;;;6277950;28;20230;-53
2022/07/18 11:32:03;;;;;;;4.37;4.07;;;28.00;1.00;;;;;;6278996;28;20724;-52
2022/07/18 11:35:08;;;;;;;5.30;4.80;;;28.10;1.00;;;;;;6282494;28;20613;-53
2022/07/18 11:38:12;;;;;;;5.73;4.87;;;28.10;1.00;;;;;;6274165;28;20233;-55
2022/07/18 11:41:16;;;;;;;6.67;4.60;;;28.10;1.00;;;;;;6280656;28;21008;-52
2022/07/18 11:44:21;;;;;;;4.83;4.53;;;27.90;1.00;;;;;;6268334;28;20236;-53
2022/07/18 11:47:24;;;;;;;5.30;4.87;;;28.00;1.00;;;;;;6273769;28;20255;-55
2022/07/18 11:50:35;;;;;;;4.73;4.27;;;28.10;1.00;;;;;;6271375;28;20320;-52
2022/07/18 11:53:45;;;;;;;5.33;4.93;;;28.40;1.00;;;;;;6270984;28;20230;-52
2022/07/18 11:56:49;;;;;;;4.60;4.30;;;28.50;1.00;;;;;;6267262;28;20279;-52
2022/07/18 11:59:52;;;;;;;4.37;4.10;;;28.40;1.00;;;;;;6272194;28;20248;-52
2022/07/18 12:03:09;;;;;;;5.40;5.10;;;28.30;1.00;;;;;;6281144;28;20268;-51
2022/07/18 12:06:19;;;;;;;4.87;4.57;;;28.40;1.00;;;;;;6274465;28;20238;-53
2022/07/18 12:09:28;;;;;;;5.03;4.77;;;28.40;1.00;;;;;;6266919;28;20492;-52
2022/07/18 12:12:38;;;;;;;5.30;5.00;;;28.50;1.00;;;;;;6282671;28;20289;-53
2022/07/18 12:15:42;;;;;;;6.10;5.50;;;28.50;1.00;;;;;;6280464;28;20286;-55
2022/07/18 12:18:49;;;;;;;5.15;4.85;;;28.50;1.00;;;;;;6273561;28;20809;-51
2022/07/18 12:21:56;;;;;;;5.90;5.40;;;28.70;1.00;;;;;;6283075;28;20504;-53
2022/07/18 12:25:00;;;;;;;5.50;5.15;;;28.80;1.00;;;;;;6273393;28;20376;-54
2022/07/18 12:28:13;;;;;;;5.68;5.18;;;28.90;1.00;;;;;;6279846;28;20244;-51
2022/07/18 12:31:38;;;;;;;5.50;5.03;;;28.90;1.00;;;;;;6283319;28;20324;-51
2022/07/18 12:34:55;;;;;;;6.82;4.82;;;29.00;1.00;;;;;;6274879;28;20229;-52
2022/07/18 12:37:59;;;;;;;4.90;4.50;;;29.40;1.00;;;;;;6281738;28;20744;-49
2022/07/18 12:41:04;;;;;;;5.10;4.80;;;29.20;1.00;;;;;;6275553;28;20240;-51
2022/07/18 12:44:07;;;;;;;4.63;4.43;;;29.10;1.00;;;;;;6288925;28;20381;-52
2022/07/18 12:47:10;;;;;;;5.53;4.97;;;29.30;1.00;;;;;;6283416;28;20294;-51
2022/07/18 12:50:12;;;;;;;5.80;5.25;;;29.00;1.00;;;;;;6293030;28;20290;-52
2022/07/18 12:53:17;;;;;;;4.97;4.68;;;29.20;1.00;;;;;;6271243;28;20339;-53
2022/07/18 12:56:21;;;;;;;5.25;4.95;;;29.40;1.00;;;;;;6283760;28;20386;-52
2022/07/18 12:59:24;;;;;;;5.13;4.60;;;29.50;1.00;;;;;;6280222;28;20241;-52
2022/07/18 13:02:27;;;;;;;4.93;4.63;;;29.70;1.00;;;;;;6287915;28;20278;-53
2022/07/18 13:05:31;;;;;;;4.85;4.50;;;29.90;1.00;;;;;;6295931;28;20251;-53
2022/07/18 13:08:34;;;;;;;4.18;4.00;;;30.20;1.00;;;;;;6279074;28;20260;-52
2022/07/18 13:11:40;;;;;;;5.88;5.40;;;30.40;1.00;;;;;;6302060;28;20449;-53
2022/07/18 13:14:43;;;;;;;4.68;4.47;;;30.70;1.00;;;;;;6294409;28;20313;-52
2022/07/18 13:17:46;;;;;;;4.30;4.10;;;30.90;1.00;;;;;;6278324;28;20242;-53
2022/07/18 13:20:49;;;;;;;4.18;3.88;;;30.90;1.00;;;;;;6284401;28;20252;-52
2022/07/18 13:23:52;;;;;;;3.85;3.65;;;30.80;1.00;;;;;;6279242;28;20776;-52
2022/07/18 13:26:57;;;;;;;4.18;3.88;;;30.30;1.00;;;;;;6276079;28;20234;-51
2022/07/18 13:30:00;;;;;;;3.28;3.08;;;30.30;1.00;;;;;;6267928;28;20238;-52
2022/07/18 13:33:04;;;;;;;3.53;3.40;;;30.20;1.00;;;;;;6286287;28;20580;-53
2022/07/18 13:36:08;;;;;;;4.57;3.38;;;30.10;1.00;;;;;;6284909;28;20310;-49
2022/07/18 13:39:11;;;;;;;3.45;3.35;;;30.10;1.00;;;;;;6279887;28;20237;-50
2022/07/18 13:42:15;;;;;;;3.63;3.53;;;30.10;1.00;;;;;;6279462;28;20817;-51
2022/07/18 13:45:18;;;;;;;3.85;3.65;;;29.80;1.00;;;;;;6273418;28;20491;-52
2022/07/18 13:48:21;;;;;;;4.63;3.35;;;29.40;1.00;;;;;;6270884;28;20239;-51
2022/07/18 13:51:24;;;;;;;3.72;3.50;;;29.40;1.00;;;;;;6279059;28;20261;-52
2022/07/18 13:54:27;;;;;;;3.88;3.67;;;29.30;1.00;;;;;;6289248;28;20237;-52
2022/07/18 13:57:31;;;;;;;4.00;3.80;;;29.30;1.00;;;;;;6271329;28;20436;-51
2022/07/18 14:00:34;;;;;;;3.75;3.53;;;29.10;1.00;;;;;;6274422;28;20310;-51
2022/07/18 14:03:37;;;;;;;4.47;4.18;;;29.20;1.00;;;;;;6276961;28;20233;-51
2022/07/18 14:06:40;;;;;;;4.05;3.75;;;29.30;1.00;;;;;;6283215;28;20396;-52
2022/07/18 14:09:44;;;;;;;5.28;4.97;;;29.00;1.00;;;;;;6272679;28;20259;-54
2022/07/18 14:12:48;;;;;;;4.75;4.35;;;29.30;1.00;;;;;;6281617;28;20236;-55
2022/07/18 14:15:51;;;;;;;4.45;4.25;;;29.50;1.00;;;;;;6285003;28;20276;-53
2022/07/18 14:18:57;;;;;;;5.40;4.90;;;29.70;1.00;;;;;;6278858;28;20234;-52
2022/07/18 14:22:00;;;;;;;4.50;4.10;;;29.80;1.00;;;;;;6285237;28;20229;-52
2022/07/18 14:25:03;;;;;;;4.50;4.30;;;29.90;1.00;;;;;;6272425;28;20305;-54
2022/07/18 14:28:07;;;;;;;4.43;4.07;;;30.00;1.00;;;;;;6274700;28;20388;-53
2022/07/18 14:31:11;;;;;;;4.65;4.45;;;30.00;1.00;;;;;;6277758;28;20233;-53
2022/07/18 14:34:13;;;;;;;4.80;4.40;;;30.00;1.00;;;;;;6282125;28;20244;-55
2022/07/18 14:37:16;;;;;;;6.38;4.65;;;30.10;1.00;;;;;;6278960;28;20521;-54
2022/07/18 14:40:20;;;;;;;4.57;4.32;;;30.20;1.00;;;;;;6276977;28;20233;-53
2022/07/18 14:43:24;;;;;;;4.80;4.50;;;29.90;1.00;;;;;;6278310;28;20331;-57
2022/07/18 14:46:27;;;;;;;5.40;4.93;;;29.70;1.00;;;;;;6250020;28;20765;-57
2022/07/18 14:49:30;;;;;;;5.72;4.90;;;29.70;1.00;;;;;;6275420;28;20860;-53
2022/07/18 14:52:33;;;;;;;5.25;4.95;;;29.80;1.00;;;;;;6281173;28;20329;-53
2022/07/18 14:55:37;;;;;;;5.15;4.88;;;29.80;1.00;;;;;;6280890;28;20264;-52
2022/07/18 14:58:41;;;;;;;7.78;4.57;;;29.80;1.00;;;;;;6281800;28;20237;-51
2022/07/18 15:01:44;;;;;;;4.63;4.43;;;29.90;1.00;;;;;;6281406;28;20546;-54
2022/07/18 15:04:48;;;;;;;8.40;4.72;;;30.00;1.00;;;;;;6283834;28;20710;-51
2022/07/18 15:07:52;;;;;;;5.38;4.97;;;29.80;1.00;;;;;;6278856;28;20237;-53
2022/07/18 15:10:54;;;;;;;4.97;4.68;;;29.90;1.00;;;;;;6289188;28;20624;-57
2022/07/18 15:13:59;;;;;;;5.70;5.32;;;30.10;1.00;;;;;;6283592;28;20240;-57
2022/07/18 15:17:02;;;;;;;5.00;4.70;;;30.30;1.00;;;;;;6284102;28;20738;-51
2022/07/18 15:20:06;;;;;;;6.13;5.03;;;30.20;1.00;;;;;;6273741;28;20252;-53
2022/07/18 15:23:09;;;;;;;5.65;5.20;;;30.00;1.00;;;;;;6271506;28;20240;-52
2022/07/18 15:26:12;;;;;;;6.68;4.93;;;29.90;1.00;;;;;;6282263;28;20229;-53
2022/07/18 15:29:17;;;;;;;6.28;5.43;;;29.90;1.00;;;;;;6281660;28;20686;-53
2022/07/18 15:32:20;;;;;;;6.30;5.82;;;29.80;1.00;;;;;;6273861;28;20758;-53
2022/07/18 15:35:23;;;;;;;5.88;5.45;;;29.70;1.00;;;;;;6283214;28;20272;-52
2022/07/18 15:38:26;;;;;;;5.93;5.45;;;29.50;1.00;;;;;;6272647;28;20324;-54
2022/07/18 15:41:29;;;;;;;6.35;5.60;;;29.50;1.00;;;;;;6277693;28;20353;-53
2022/07/18 15:44:37;;;;;;;6.15;5.65;;;29.60;1.00;;;;;;6293547;28;20232;-53
2022/07/18 15:47:40;;;;;;;5.35;5.05;;;29.80;1.00;;;;;;6284234;28;20225;-55
2022/07/18 15:50:43;;;;;;;6.30;5.82;;;29.80;1.00;;;;;;6279488;28;20256;-52
2022/07/18 15:53:46;;;;;;;5.80;5.40;;;30.00;1.00;;;;;;6278573;28;20283;-52
2022/07/18 15:56:49;;;;;;;6.65;5.97;;;30.10;1.00;;;;;;6279028;28;20241;-56
2022/07/18 15:59:53;;;;;;;7.25;5.43;;;30.10;1.00;;;;;;6282593;28;20233;-51
2022/07/18 16:02:56;;;;;;;6.07;5.75;;;30.00;1.00;;;;;;6283113;28;20229;-52
2022/07/18 16:05:59;;;;;;;5.70;5.30;;;30.00;1.00;;;;;;6281015;28;20245;-52
2022/07/18 16:09:03;;;;;;;7.38;4.93;;;30.00;1.00;;;;;;6284275;28;20562;-53
2022/07/18 16:12:07;;;;;;;6.00;5.60;;;30.10;1.00;;;;;;6283251;28;20237;-52
2022/07/18 16:15:11;;;;;;;5.88;5.57;;;30.20;1.00;;;;;;6279344;28;21135;-52
2022/07/18 16:18:16;;;;;;;6.00;5.47;;;30.40;1.00;;;;;;6272705;28;20746;-52